createdAt,value
2018-03-16T00:16:19.038Z,54.8
2018-03-16T00:33:06.980Z,54.4
2018-03-16T00:49:53.753Z,54.4
2018-03-16T01:06:41.369Z,54.4
2018-03-16T01:23:30.729Z,54.4
2018-03-16T01:40:16.179Z,54.4
2018-03-16T01:57:03.848Z,54.0
2018-03-16T02:13:50.618Z,54.0
2018-03-16T02:30:37.280Z,53.6
2018-03-16T02:47:24.720Z,53.6
2018-03-16T03:04:11.210Z,53.2
2018-03-16T03:20:58.054Z,53.2
2018-03-16T03:37:44.818Z,53.2
2018-03-16T03:54:31.522Z,53.2
2018-03-16T04:11:18.198Z,53.2
2018-03-16T04:28:05.471Z,53.2
2018-03-16T04:44:51.470Z,52.8
2018-03-16T05:01:38.582Z,52.8
2018-03-16T05:18:25.528Z,52.8
2018-03-16T05:35:11.868Z,52.8
2018-03-16T05:51:58.125Z,52.8
2018-03-16T06:08:44.799Z,52.0
2018-03-16T06:25:31.459Z,52.0
2018-03-16T06:42:17.362Z,52.0
2018-03-16T06:59:04.042Z,52.0
2018-03-16T07:15:51.085Z,52.0
2018-03-16T07:32:37.271Z,51.6
2018-03-16T07:49:23.891Z,51.2
2018-03-16T08:06:11.619Z,51.2
2018-03-16T08:22:57.487Z,50.8
2018-03-16T08:39:42.983Z,50.8
2018-03-16T08:56:29.453Z,50.8
2018-03-16T09:13:16.542Z,51.2
2018-03-16T09:30:02.257Z,52.8
2018-03-16T09:46:50.371Z,53.2
2018-03-16T10:03:38.061Z,53.6
2018-03-16T10:20:22.170Z,53.6
2018-03-16T10:37:08.818Z,53.6
2018-03-16T10:53:54.350Z,53.6
2018-03-16T11:10:41.279Z,53.6
2018-03-16T11:27:29.478Z,53.2
2018-03-16T11:44:14.846Z,53.2
2018-03-16T12:01:02.067Z,53.2
2018-03-16T12:17:49.221Z,53.2
2018-03-16T12:34:37.193Z,53.6
2018-03-16T12:51:24.373Z,53.6
2018-03-16T13:08:11.234Z,53.6
2018-03-16T13:24:57.263Z,53.6
2018-03-16T13:41:44.537Z,54.4
2018-03-16T13:58:31.903Z,54.4
2018-03-16T14:15:19.071Z,54.8
2018-03-16T14:32:06.310Z,54.8
2018-03-16T14:48:54.085Z,54.8
2018-03-16T15:05:46.360Z,55.6
2018-03-16T15:22:27.894Z,55.6
2018-03-16T15:39:14.995Z,56.0
2018-03-16T15:56:02.171Z,56.0
2018-03-16T16:12:49.478Z,56.0
2018-03-16T16:29:36.432Z,55.2
2018-03-16T16:46:24.126Z,54.8
2018-03-16T17:03:11.354Z,55.2
2018-03-16T17:19:58.750Z,55.2
2018-03-16T17:36:46.004Z,54.0
2018-03-16T17:53:33.289Z,54.0
2018-03-16T18:10:18.993Z,54.4
2018-03-16T18:27:05.190Z,55.2
2018-03-16T18:43:51.307Z,55.2
2018-03-16T19:00:37.984Z,55.2
2018-03-16T19:17:24.564Z,55.2
2018-03-16T19:34:09.996Z,55.2
2018-03-16T19:50:56.697Z,55.2
2018-03-16T20:07:43.204Z,55.2
2018-03-16T20:24:29.174Z,55.2
2018-03-16T20:41:15.088Z,55.2
2018-03-16T20:58:02.903Z,55.2
2018-03-16T21:14:48.024Z,55.2
2018-03-16T21:31:34.719Z,55.2
2018-03-16T21:48:20.562Z,55.2
2018-03-16T22:05:07.730Z,54.0
2018-03-16T22:21:54.155Z,54.0
2018-03-16T22:38:40.263Z,53.6
2018-03-16T22:55:27.007Z,53.2
2018-03-16T23:12:12.891Z,53.2
2018-03-16T23:28:59.815Z,52.4
2018-03-16T23:45:46.036Z,52.0
